Time;durP1;ratioP1;P1;durP2;ratioP2;P2;SDS_P1;SDS_P2;PMS_P1;PMS_P2;Temp;Humidity;BMP_temperature;BMP_pressure;BME280_temperature;BME280_humidity;BME280_pressure;Samples;Min_cycle;Max_cycle;Signal;HPM_P1;HPM_P2
2023/01/08 00:02:11;;;;;;;5.65;3.40;;;10.90;99.90;;;;;;5113483;28;20225;-54
2023/01/08 00:04:36;;;;;;;7.00;2.97;;;10.80;99.90;;;;;;5112480;28;20266;-53
2023/01/08 00:07:02;;;;;;;6.25;3.30;;;10.80;99.90;;;;;;5113569;28;20173;-52
2023/01/08 00:09:31;;;;;;;5.72;3.55;;;10.80;99.90;;;;;;5113576;28;20321;-52
2023/01/08 00:11:56;;;;;;;5.47;3.20;;;10.90;99.90;;;;;;5113941;28;20170;-51
2023/01/08 00:14:22;;;;;;;5.20;2.75;;;10.90;99.90;;;;;;5113506;28;20177;-54
2023/01/08 00:16:48;;;;;;;4.35;2.88;;;10.90;99.90;;;;;;5112285;28;20185;-53
2023/01/08 00:19:14;;;;;;;4.07;2.22;;;10.90;99.90;;;;;;5113735;28;20177;-53
2023/01/08 00:21:40;;;;;;;4.65;2.40;;;10.90;99.90;;;;;;5113678;28;20538;-49
2023/01/08 00:24:09;;;;;;;4.68;2.55;;;10.80;99.90;;;;;;5113432;28;20240;-53
2023/01/08 00:26:35;;;;;;;2.75;2.15;;;11.00;99.90;;;;;;5113468;28;20180;-50
2023/01/08 00:29:00;;;;;;;3.75;1.67;;;10.90;99.90;;;;;;5113383;28;20169;-52
2023/01/08 00:31:26;;;;;;;2.97;1.65;;;10.90;99.90;;;;;;5113625;28;20178;-52
2023/01/08 00:33:52;;;;;;;3.17;1.20;;;10.80;99.90;;;;;;5112272;28;20192;-53
2023/01/08 00:36:18;;;;;;;3.70;1.40;;;10.80;99.90;;;;;;5113519;28;20233;-53
2023/01/08 00:38:46;;;;;;;1.75;1.08;;;10.70;99.90;;;;;;5113366;28;20215;-50
2023/01/08 00:41:13;;;;;;;2.95;1.27;;;10.80;99.90;;;;;;5113568;28;20181;-53
2023/01/08 00:43:39;;;;;;;2.80;1.27;;;10.70;99.90;;;;;;5116849;28;20216;-52
2023/01/08 00:46:05;;;;;;;4.75;1.48;;;10.70;99.90;;;;;;5117268;28;20256;-52
2023/01/08 00:48:32;;;;;;;3.05;1.25;;;10.70;99.90;;;;;;5117404;28;20169;-52
2023/01/08 00:51:02;;;;;;;2.03;0.90;;;10.50;99.90;;;;;;5117313;28;20170;-53
2023/01/08 00:53:28;;;;;;;3.83;1.40;;;10.40;99.90;;;;;;5117222;28;20176;-53
2023/01/08 00:56:05;;;;;;;4.00;1.27;;;10.40;99.90;;;;;;5117125;28;20173;-51
2023/01/08 00:58:30;;;;;;;3.65;1.20;;;10.40;99.90;;;;;;5117003;28;20172;-52
2023/01/08 01:00:56;;;;;;;2.33;0.98;;;10.40;99.90;;;;;;5116760;28;20272;-53
2023/01/08 01:03:23;;;;;;;3.05;1.17;;;10.40;99.90;;;;;;5116969;28;20579;-53
2023/01/08 01:05:48;;;;;;;3.35;1.10;;;10.40;99.90;;;;;;5116854;28;20546;-53
2023/01/08 01:08:17;;;;;;;3.53;1.25;;;10.30;99.90;;;;;;5115693;28;20180;-49
2023/01/08 01:10:43;;;;;;;3.33;1.35;;;10.40;99.90;;;;;;5116719;28;20178;-51
2023/01/08 01:13:10;;;;;;;3.55;1.35;;;10.30;99.90;;;;;;5116665;28;20188;-51
2023/01/08 01:15:35;;;;;;;4.18;1.40;;;10.40;99.90;;;;;;5116852;28;20733;-51
2023/01/08 01:18:04;;;;;;;3.90;1.40;;;10.30;99.90;;;;;;5116638;28;20193;-52
2023/01/08 01:20:30;;;;;;;3.08;1.60;;;10.40;99.90;;;;;;5116607;28;20183;-52
2023/01/08 01:22:55;;;;;;;5.07;1.73;;;10.30;99.90;;;;;;5116557;28;20248;-50
2023/01/08 01:25:21;;;;;;;4.95;1.60;;;10.30;99.90;;;;;;5116436;28;20209;-52
2023/01/08 01:27:47;;;;;;;3.25;1.42;;;10.30;99.90;;;;;;5116638;28;20177;-53
2023/01/08 01:30:12;;;;;;;3.20;1.58;;;10.30;99.90;;;;;;5115314;28;20559;-52
2023/01/08 01:32:38;;;;;;;3.35;1.35;;;10.30;99.90;;;;;;5116766;28;20634;-52
2023/01/08 01:35:04;;;;;;;3.35;1.02;;;10.30;99.90;;;;;;5116286;28;20178;-50
2023/01/08 01:37:33;;;;;;;3.72;1.33;;;10.30;99.90;;;;;;5116352;28;20177;-53
2023/01/08 01:39:59;;;;;;;2.65;1.02;;;10.30;99.90;;;;;;5116164;28;20181;-52
2023/01/08 01:42:40;;;;;;;2.65;1.33;;;10.20;99.90;;;;;;5115034;28;20241;-49
2023/01/08 01:45:21;;;;;;;3.42;1.15;;;10.30;99.90;;;;;;5116237;28;20550;-50
2023/01/08 01:47:54;;;;;;;1.77;1.10;;;10.30;99.90;;;;;;5116049;28;20161;-51
2023/01/08 01:50:31;;;;;;;2.58;1.13;;;10.30;99.90;;;;;;5115998;28;20242;-49
2023/01/08 01:53:04;;;;;;;3.75;1.40;;;10.10;99.90;;;;;;5115890;28;20630;-50
2023/01/08 01:55:31;;;;;;;4.32;1.20;;;10.10;99.90;;;;;;5116025;28;20173;-50
2023/01/08 01:58:22;;;;;;;3.10;1.05;;;10.00;99.90;;;;;;5116000;28;20231;-50
2023/01/08 02:00:50;;;;;;;3.95;1.10;;;10.10;99.90;;;;;;5108940;28;20550;-51
2023/01/08 02:03:19;;;;;;;3.08;1.30;;;10.10;99.90;;;;;;5114485;28;20173;-49
2023/01/08 02:06:02;;;;;;;3.42;1.10;;;10.00;99.90;;;;;;5115624;28;20584;-51
2023/01/08 02:09:08;;;;;;;2.40;1.17;;;9.90;99.90;;;;;;5116140;28;20172;-50
2023/01/08 02:14:46;;;;;;;3.33;1.20;;;10.00;99.90;;;;;;5115369;28;20668;-49
2023/01/08 02:17:18;;;;;;;3.70;1.60;;;10.00;99.90;;;;;;5115564;28;20567;-50
2023/01/08 02:19:50;;;;;;;3.17;1.58;;;10.00;99.90;;;;;;5115719;28;20165;-50
2023/01/08 02:22:52;;;;;;;3.65;1.42;;;9.90;99.90;;;;;;5114226;28;20635;-51
2023/01/08 02:25:49;;;;;;;3.10;1.30;;;9.90;99.90;;;;;;5115244;28;20212;-50
2023/01/08 02:28:15;;;;;;;2.67;1.27;;;9.90;99.90;;;;;;5115371;28;20552;-49
2023/01/08 02:30:43;;;;;;;2.70;1.35;;;9.90;99.90;;;;;;5114225;28;20215;-50
2023/01/08 02:33:12;;;;;;;2.60;1.40;;;9.80;99.90;;;;;;5114135;28;20181;-53
2023/01/08 02:36:07;;;;;;;4.50;1.55;;;9.80;99.90;;;;;;5115103;28;20635;-51
2023/01/08 02:38:36;;;;;;;3.15;1.40;;;9.90;99.90;;;;;;5104255;28;20193;-52
2023/01/08 02:41:11;;;;;;;5.25;1.80;;;9.90;99.90;;;;;;5114846;28;20177;-52
2023/01/08 02:43:48;;;;;;;3.50;1.77;;;10.00;99.90;;;;;;5115058;28;20237;-52
2023/01/08 02:46:21;;;;;;;3.50;1.70;;;9.90;99.90;;;;;;5115013;28;20202;-51
2023/01/08 02:48:54;;;;;;;3.42;1.63;;;9.90;99.90;;;;;;5114847;28;20623;-55
2023/01/08 02:51:36;;;;;;;2.13;1.80;;;10.00;99.90;;;;;;5114815;28;20549;-53
2023/01/08 02:54:08;;;;;;;3.75;1.80;;;9.90;99.90;;;;;;5114873;28;20260;-50
2023/01/08 02:56:37;;;;;;;4.40;1.88;;;9.90;99.90;;;;;;5114688;28;20161;-51
2023/01/08 02:59:06;;;;;;;4.15;1.90;;;9.90;99.90;;;;;;5114638;28;20162;-49
2023/01/08 03:01:33;;;;;;;3.95;1.90;;;10.00;99.90;;;;;;5114435;28;20169;-50
2023/01/08 03:04:11;;;;;;;3.45;2.03;;;10.00;99.90;;;;;;5113400;28;20250;-53
2023/01/08 03:06:37;;;;;;;4.18;2.17;;;10.00;99.90;;;;;;5114630;28;20180;-51
2023/01/08 03:09:09;;;;;;;3.70;2.20;;;9.90;99.90;;;;;;5114538;28;20298;-50
2023/01/08 03:11:55;;;;;;;3.38;2.03;;;9.90;99.90;;;;;;5114309;28;20245;-51
2023/01/08 03:14:28;;;;;;;5.10;2.25;;;10.00;99.90;;;;;;5103627;28;20191;-51
2023/01/08 03:17:29;;;;;;;3.45;2.00;;;10.00;99.90;;;;;;5114397;28;20177;-49
2023/01/08 03:20:17;;;;;;;4.75;2.40;;;10.00;99.90;;;;;;5114276;28;20694;-50
2023/01/08 03:22:46;;;;;;;5.28;1.90;;;10.00;99.90;;;;;;5114389;28;20534;-53
2023/01/08 03:25:14;;;;;;;4.15;1.90;;;10.00;99.90;;;;;;5114228;28;20238;-52
2023/01/08 03:27:46;;;;;;;5.85;2.30;;;10.00;99.90;;;;;;5114072;28;20165;-52
2023/01/08 03:30:16;;;;;;;4.75;1.75;;;9.90;99.90;;;;;;5114197;28;20166;-51
2023/01/08 03:32:43;;;;;;;4.60;1.90;;;9.80;99.90;;;;;;5114071;28;20176;-49
2023/01/08 03:35:16;;;;;;;4.13;1.75;;;9.80;99.90;;;;;;5114140;28;20184;-50
2023/01/08 03:37:50;;;;;;;4.28;1.88;;;9.90;99.90;;;;;;5114146;28;20253;-51
2023/01/08 03:40:20;;;;;;;7.32;1.70;;;9.70;99.90;;;;;;5114040;28;20222;-51
2023/01/08 03:42:46;;;;;;;2.45;1.67;;;9.70;99.90;;;;;;5113859;28;20207;-52
2023/01/08 03:45:12;;;;;;;3.72;1.55;;;9.70;99.90;;;;;;5114149;28;20213;-50
2023/01/08 03:47:41;;;;;;;5.38;1.63;;;9.70;99.90;;;;;;5113938;28;20253;-51
2023/01/08 03:50:13;;;;;;;3.67;1.50;;;9.70;99.90;;;;;;5113888;28;20223;-51
2023/01/08 03:52:38;;;;;;;5.50;1.40;;;9.80;99.90;;;;;;5114144;28;20173;-52
2023/01/08 03:55:10;;;;;;;3.67;1.45;;;9.70;99.90;;;;;;5113783;28;20178;-53
2023/01/08 03:57:36;;;;;;;4.78;1.30;;;9.70;99.90;;;;;;5113710;28;20169;-52
2023/01/08 04:00:02;;;;;;;3.78;1.38;;;9.70;99.90;;;;;;5112652;28;20249;-53
2023/01/08 04:02:31;;;;;;;4.95;1.40;;;9.70;99.90;;;;;;5113960;28;20173;-52
2023/01/08 04:04:56;;;;;;;3.55;1.33;;;9.80;99.90;;;;;;5113674;28;20292;-52
2023/01/08 04:07:22;;;;;;;3.63;1.33;;;9.70;99.90;;;;;;5113668;28;20605;-52
2023/01/08 04:09:48;;;;;;;3.90;1.45;;;9.60;99.90;;;;;;5113622;28;20504;-51
2023/01/08 04:12:23;;;;;;;3.60;1.63;;;9.60;99.90;;;;;;5113354;28;20569;-51
2023/01/08 04:14:49;;;;;;;2.50;1.35;;;9.50;99.90;;;;;;5113706;28;20181;-50
2023/01/08 04:17:14;;;;;;;4.90;1.65;;;9.50;99.90;;;;;;5115289;28;20177;-50
2023/01/08 04:19:40;;;;;;;3.55;1.48;;;9.40;99.90;;;;;;5117878;28;20625;-50
2023/01/08 04:22:08;;;;;;;5.22;1.70;;;9.40;99.90;;;;;;5117725;28;20521;-54
2023/01/08 04:24:33;;;;;;;5.35;1.52;;;9.30;99.90;;;;;;5117795;28;20193;-52
2023/01/08 04:26:59;;;;;;;3.80;1.15;;;9.30;99.90;;;;;;5117614;28;20177;-51
2023/01/08 04:29:24;;;;;;;3.10;1.50;;;9.30;99.90;;;;;;5117780;28;20529;-52
2023/01/08 04:31:50;;;;;;;3.50;1.48;;;9.30;99.90;;;;;;5117640;28;20173;-49
2023/01/08 04:34:21;;;;;;;3.60;1.50;;;9.30;99.90;;;;;;5117587;28;20174;-51
2023/01/08 04:36:47;;;;;;;4.63;1.50;;;9.30;99.90;;;;;;5117555;28;20176;-52
2023/01/08 04:39:13;;;;;;;4.15;1.67;;;9.30;99.90;;;;;;5117299;28;20264;-52
2023/01/08 04:41:38;;;;;;;2.47;1.35;;;9.20;99.90;;;;;;5117305;28;20196;-53
2023/01/08 04:44:04;;;;;;;4.85;1.75;;;9.10;99.90;;;;;;5117223;28;20209;-50
2023/01/08 04:46:33;;;;;;;5.15;1.60;;;8.90;99.90;;;;;;5117378;28;20607;-51
2023/01/08 04:48:59;;;;;;;4.10;1.70;;;8.90;99.90;;;;;;5117256;28;20173;-53
2023/01/08 04:51:25;;;;;;;9.10;2.30;;;8.80;99.90;;;;;;5117134;28;20170;-53
2023/01/08 04:53:51;;;;;;;5.03;1.63;;;8.70;99.90;;;;;;5116984;28;20180;-51
2023/01/08 04:56:16;;;;;;;7.45;1.95;;;8.70;99.90;;;;;;5117301;28;20169;-52
2023/01/08 04:58:43;;;;;;;6.70;1.73;;;8.70;99.90;;;;;;5117014;28;20226;-54
2023/01/08 05:01:22;;;;;;;3.28;1.50;;;8.70;99.90;;;;;;5116946;28;20282;-52
2023/01/08 05:03:53;;;;;;;6.63;1.90;;;8.70;99.90;;;;;;5116924;28;20241;-51
2023/01/08 05:06:18;;;;;;;6.93;2.10;;;8.70;99.90;;;;;;5117140;28;20223;-51
2023/01/08 05:08:44;;;;;;;5.43;1.90;;;8.70;99.90;;;;;;5115855;28;20646;-50
2023/01/08 05:11:10;;;;;;;6.47;1.92;;;8.60;99.90;;;;;;5117059;28;20249;-52
2023/01/08 05:13:39;;;;;;;8.35;1.95;;;8.60;99.90;;;;;;5116725;28;20209;-52
2023/01/08 05:16:05;;;;;;;5.85;2.28;;;8.50;99.90;;;;;;5116753;28;20260;-53
2023/01/08 05:18:33;;;;;;;6.25;1.98;;;8.50;99.90;;;;;;5116613;28;20196;-53
2023/01/08 05:21:00;;;;;;;7.53;1.50;;;8.40;99.90;;;;;;5116870;28;20187;-53
2023/01/08 05:23:35;;;;;;;6.38;2.30;;;8.40;99.90;;;;;;5116521;28;20181;-51
2023/01/08 05:26:04;;;;;;;7.68;2.42;;;8.40;99.90;;;;;;5116797;28;20210;-51
2023/01/08 05:28:30;;;;;;;5.90;2.08;;;8.30;99.90;;;;;;5115247;28;20521;-52
2023/01/08 05:30:56;;;;;;;7.65;2.55;;;8.20;99.90;;;;;;5116325;28;20188;-50
2023/01/08 05:33:25;;;;;;;9.45;2.75;;;8.30;99.90;;;;;;5116078;28;20181;-53
2023/01/08 05:35:51;;;;;;;7.85;2.25;;;8.30;99.90;;;;;;5116511;28;20173;-50
2023/01/08 05:38:17;;;;;;;7.07;2.38;;;8.20;99.90;;;;;;5116403;28;20180;-51
2023/01/08 05:40:43;;;;;;;8.68;2.72;;;8.30;99.90;;;;;;5116326;28;20170;-50
2023/01/08 05:43:12;;;;;;;8.02;2.75;;;8.30;99.90;;;;;;5116047;28;20260;-50
2023/01/08 05:45:38;;;;;;;8.77;2.40;;;8.20;99.90;;;;;;5115989;28;20204;-50
2023/01/08 05:48:06;;;;;;;7.53;2.40;;;8.20;99.90;;;;;;5115810;28;20661;-50
2023/01/08 05:50:32;;;;;;;8.15;2.42;;;8.10;99.90;;;;;;5116194;28;20217;-50
2023/01/08 05:52:58;;;;;;;6.32;1.73;;;8.10;99.90;;;;;;5116104;28;20171;-50
2023/01/08 05:55:27;;;;;;;6.88;2.40;;;8.00;99.90;;;;;;5115999;28;20185;-50
2023/01/08 05:57:53;;;;;;;8.30;2.60;;;8.00;99.90;;;;;;5115903;28;20173;-52
2023/01/08 06:00:19;;;;;;;6.95;2.17;;;8.10;99.90;;;;;;5115636;28;20562;-53
2023/01/08 06:02:46;;;;;;;6.47;2.15;;;8.10;99.90;;;;;;5115931;28;20166;-53
2023/01/08 06:05:12;;;;;;;7.72;2.60;;;8.10;99.90;;;;;;5115758;28;20227;-50
2023/01/08 06:07:38;;;;;;;9.15;2.38;;;8.00;99.90;;;;;;5115665;28;20524;-53
2023/01/08 06:10:07;;;;;;;8.27;2.35;;;8.00;99.90;;;;;;5115638;28;20169;-52
2023/01/08 06:12:32;;;;;;;9.38;2.67;;;8.10;99.90;;;;;;5115582;28;20230;-50
2023/01/08 06:15:01;;;;;;;6.35;2.00;;;8.00;99.90;;;;;;5115394;28;20177;-52
2023/01/08 06:17:27;;;;;;;5.88;1.95;;;8.10;99.90;;;;;;5115680;28;20203;-50
2023/01/08 06:19:52;;;;;;;7.07;2.60;;;8.10;99.90;;;;;;5115642;28;20583;-52
2023/01/08 06:22:18;;;;;;;9.02;2.38;;;8.20;99.90;;;;;;5114244;28;20652;-53
2023/01/08 06:24:44;;;;;;;7.50;2.13;;;8.10;99.90;;;;;;5115531;28;20189;-50
2023/01/08 06:27:12;;;;;;;7.07;2.25;;;8.10;99.90;;;;;;5115574;28;20204;-50
2023/01/08 06:29:38;;;;;;;9.43;2.47;;;8.10;99.90;;;;;;5115207;28;20238;-50
2023/01/08 06:32:04;;;;;;;9.07;2.28;;;8.20;99.90;;;;;;5115161;28;20184;-50
2023/01/08 06:34:29;;;;;;;9.45;2.28;;;8.30;99.90;;;;;;5115149;28;20226;-50
2023/01/08 06:36:55;;;;;;;7.55;2.35;;;8.40;99.90;;;;;;5115235;28;20218;-53
2023/01/08 06:39:21;;;;;;;7.15;2.28;;;8.40;99.90;;;;;;5114809;28;20180;-50
2023/01/08 06:41:46;;;;;;;7.53;2.38;;;8.40;99.90;;;;;;5115345;28;20373;-54
2023/01/08 06:44:12;;;;;;;9.40;2.55;;;8.40;99.90;;;;;;5114942;28;20262;-50
2023/01/08 06:46:39;;;;;;;10.00;2.35;;;8.40;99.90;;;;;;5115184;28;20262;-51
2023/01/08 06:49:06;;;;;;;8.57;2.20;;;8.50;99.90;;;;;;5113877;28;20173;-50
2023/01/08 06:51:31;;;;;;;6.85;2.03;;;8.50;99.90;;;;;;5114833;28;20646;-49
2023/01/08 06:53:57;;;;;;;7.15;2.60;;;8.50;99.90;;;;;;5113415;28;20269;-52
2023/01/08 06:56:23;;;;;;;10.75;2.60;;;8.40;99.90;;;;;;5079181;28;20181;-52
2023/01/08 06:58:49;;;;;;;6.43;2.40;;;8.40;99.90;;;;;;5114498;28;20661;-49
2023/01/08 07:01:15;;;;;;;8.27;2.45;;;8.30;99.90;;;;;;5114144;28;20189;-50
2023/01/08 07:03:41;;;;;;;9.88;2.60;;;8.40;99.90;;;;;;5114608;28;20169;-50
2023/01/08 07:06:17;;;;;;;6.53;2.42;;;8.40;99.90;;;;;;5114517;28;20500;-50
2023/01/08 07:08:46;;;;;;;9.48;2.55;;;8.30;99.90;;;;;;5113238;28;20533;-50
2023/01/08 07:11:12;;;;;;;7.05;2.35;;;8.30;99.90;;;;;;5114438;28;20188;-53
2023/01/08 07:13:41;;;;;;;8.40;2.10;;;8.30;99.90;;;;;;5114855;28;20523;-50
2023/01/08 07:16:08;;;;;;;9.00;2.63;;;8.20;99.90;;;;;;5114788;28;20170;-50
2023/01/08 07:18:36;;;;;;;12.52;2.90;;;8.30;99.90;;;;;;5114389;28;20177;-54
2023/01/08 07:21:04;;;;;;;7.32;2.17;;;8.30;99.90;;;;;;5112492;28;20173;-51
2023/01/08 07:23:30;;;;;;;7.57;1.85;;;8.30;99.90;;;;;;5113042;28;20181;-53
2023/01/08 07:26:00;;;;;;;11.40;2.40;;;8.20;99.90;;;;;;5107189;28;20185;-52
2023/01/08 07:28:26;;;;;;;9.15;2.47;;;8.10;99.90;;;;;;5112154;28;20181;-53
2023/01/08 07:30:51;;;;;;;8.73;2.72;;;8.00;99.90;;;;;;5112358;28;20177;-53
2023/01/08 07:33:17;;;;;;;8.10;2.45;;;8.10;99.90;;;;;;5111536;28;20515;-55
2023/01/08 07:35:43;;;;;;;7.25;2.25;;;8.10;99.90;;;;;;5112706;28;20627;-54
2023/01/08 07:38:14;;;;;;;7.82;2.53;;;8.20;99.90;;;;;;5111589;28;20215;-51
2023/01/08 07:40:40;;;;;;;7.47;2.80;;;8.20;99.90;;;;;;5111404;28;20193;-53
2023/01/08 07:43:05;;;;;;;8.43;2.30;;;8.20;99.90;;;;;;5113094;28;20275;-52
2023/01/08 07:45:34;;;;;;;7.97;2.10;;;8.20;99.90;;;;;;5113714;28;20212;-52
2023/01/08 07:48:00;;;;;;;10.52;2.60;;;8.30;99.90;;;;;;5113305;28;20271;-51
2023/01/08 07:50:26;;;;;;;13.20;3.25;;;8.30;99.90;;;;;;5112876;28;20173;-54
2023/01/08 07:52:52;;;;;;;7.15;2.28;;;8.30;99.90;;;;;;5112952;28;20173;-53
2023/01/08 07:55:18;;;;;;;6.93;2.17;;;8.30;99.90;;;;;;5113586;28;20317;-52
2023/01/08 07:57:43;;;;;;;7.85;2.88;;;8.30;99.90;;;;;;5112186;28;20231;-53
2023/01/08 08:00:10;;;;;;;9.15;2.45;;;8.40;99.90;;;;;;5124746;27;20196;-49
2023/01/08 08:02:36;;;;;;;8.45;2.58;;;8.40;99.90;;;;;;5134230;27;20172;-49
2023/01/08 08:05:01;;;;;;;8.32;2.20;;;8.30;99.90;;;;;;5134148;27;20541;-53
2023/01/08 08:07:30;;;;;;;9.48;2.70;;;8.30;99.90;;;;;;5134154;28;20652;-50
2023/01/08 08:09:55;;;;;;;10.10;2.25;;;8.30;99.90;;;;;;5134149;27;20209;-53
2023/01/08 08:12:21;;;;;;;6.80;2.35;;;8.20;99.90;;;;;;5134403;28;20269;-52
2023/01/08 08:14:47;;;;;;;8.30;3.13;;;8.20;99.90;;;;;;5134239;28;20224;-51
2023/01/08 08:17:12;;;;;;;7.35;2.22;;;8.10;99.90;;;;;;5134198;27;20656;-50
2023/01/08 08:19:40;;;;;;;6.40;2.75;;;8.20;99.90;;;;;;5134172;28;20644;-50
2023/01/08 08:22:06;;;;;;;8.40;2.58;;;8.10;99.90;;;;;;5132805;28;20208;-50
2023/01/08 08:24:31;;;;;;;9.93;2.45;;;8.20;99.90;;;;;;5133938;27;20227;-52
2023/01/08 08:27:00;;;;;;;8.15;2.35;;;8.20;99.90;;;;;;5134247;28;20181;-51
2023/01/08 08:29:25;;;;;;;5.13;2.25;;;8.20;99.90;;;;;;5133959;27;20172;-52
2023/01/08 08:31:51;;;;;;;9.95;3.28;;;8.20;99.90;;;;;;5134079;28;20533;-53
2023/01/08 08:34:19;;;;;;;6.38;2.33;;;8.20;99.90;;;;;;5133967;28;20180;-54
2023/01/08 08:36:44;;;;;;;11.65;2.95;;;8.20;99.90;;;;;;5133730;27;20175;-50
2023/01/08 08:39:13;;;;;;;7.00;2.45;;;8.20;99.90;;;;;;5134063;28;20173;-54
2023/01/08 08:41:38;;;;;;;6.25;2.70;;;8.10;99.90;;;;;;5134021;28;20669;-53
2023/01/08 08:44:07;;;;;;;8.35;2.72;;;8.20;99.90;;;;;;5113370;28;20254;-53
2023/01/08 08:46:42;;;;;;;9.43;2.50;;;8.20;99.90;;;;;;5113383;28;20264;-55
2023/01/08 08:49:08;;;;;;;7.53;2.90;;;8.30;99.90;;;;;;5113311;28;20231;-53
2023/01/08 08:51:33;;;;;;;8.05;2.42;;;8.30;99.90;;;;;;5113394;28;20170;-53
2023/01/08 08:54:02;;;;;;;8.60;2.80;;;8.30;99.90;;;;;;5113270;28;20188;-51
2023/01/08 08:56:30;;;;;;;6.30;2.63;;;8.30;99.90;;;;;;5113423;28;20169;-54
2023/01/08 08:58:57;;;;;;;8.13;2.47;;;8.30;99.90;;;;;;5116063;28;20173;-53
2023/01/08 09:01:23;;;;;;;5.47;2.30;;;8.40;99.90;;;;;;5133681;28;20168;-53
2023/01/08 09:03:48;;;;;;;6.60;2.33;;;8.50;99.90;;;;;;5134540;27;20194;-53
2023/01/08 09:06:14;;;;;;;8.02;2.47;;;8.40;99.90;;;;;;5137722;27;20184;-51
2023/01/08 09:08:40;;;;;;;6.80;2.42;;;8.50;99.90;;;;;;5137902;27;20173;-53
2023/01/08 09:11:09;;;;;;;8.32;2.55;;;8.60;99.90;;;;;;5137388;27;20202;-55
2023/01/08 09:13:36;;;;;;;9.10;2.65;;;8.60;99.90;;;;;;5136129;27;20653;-53
2023/01/08 09:16:02;;;;;;;6.53;2.25;;;8.60;99.90;;;;;;5137608;27;20693;-51
2023/01/08 09:18:28;;;;;;;9.48;2.70;;;8.70;99.90;;;;;;5137103;27;20287;-50
2023/01/08 09:20:53;;;;;;;8.05;2.38;;;8.80;99.90;;;;;;5137358;27;20173;-51
2023/01/08 09:23:19;;;;;;;7.25;2.55;;;8.80;99.90;;;;;;5137217;27;20181;-50
2023/01/08 09:25:45;;;;;;;6.13;2.50;;;9.00;99.90;;;;;;5137348;27;20211;-51
2023/01/08 09:28:11;;;;;;;10.02;2.70;;;9.00;99.90;;;;;;5135825;27;20680;-50
2023/01/08 09:30:38;;;;;;;5.03;2.08;;;9.10;99.90;;;;;;5136786;27;20187;-50
2023/01/08 09:33:05;;;;;;;5.03;2.20;;;9.10;99.90;;;;;;5136864;27;20593;-50
2023/01/08 09:35:31;;;;;;;6.25;2.30;;;9.20;99.90;;;;;;5137171;27;20168;-52
2023/01/08 09:38:00;;;;;;;4.43;1.75;;;9.20;99.90;;;;;;5137124;27;20283;-51
2023/01/08 09:40:36;;;;;;;8.23;2.20;;;9.20;99.90;;;;;;5136739;27;20173;-52
2023/01/08 09:43:06;;;;;;;4.40;1.88;;;9.30;99.90;;;;;;5136835;27;20259;-53
2023/01/08 09:45:36;;;;;;;6.90;2.28;;;9.30;99.90;;;;;;5135205;27;20242;-49
2023/01/08 09:48:05;;;;;;;4.00;1.75;;;9.30;99.90;;;;;;5137170;27;20176;-49
2023/01/08 09:50:32;;;;;;;3.65;1.77;;;9.30;99.90;;;;;;5136756;27;20168;-49
2023/01/08 09:52:58;;;;;;;3.80;1.70;;;9.30;99.90;;;;;;5136503;27;20530;-52
2023/01/08 09:55:26;;;;;;;2.75;1.55;;;9.40;99.90;;;;;;5136585;27;20183;-49
2023/01/08 09:57:52;;;;;;;5.43;1.90;;;9.50;99.90;;;;;;5136440;27;20241;-54
2023/01/08 10:00:29;;;;;;;4.35;1.65;;;9.60;99.90;;;;;;5136550;27;20258;-50
2023/01/08 10:02:56;;;;;;;4.75;1.50;;;9.60;99.90;;;;;;5136584;27;20652;-51
2023/01/08 10:05:22;;;;;;;3.47;1.45;;;9.50;99.90;;;;;;5136482;27;20189;-53
2023/01/08 10:07:48;;;;;;;2.67;1.42;;;9.60;99.90;;;;;;5136584;27;20176;-51
2023/01/08 10:10:28;;;;;;;3.38;1.30;;;9.70;99.90;;;;;;5136534;27;20176;-53
2023/01/08 10:12:55;;;;;;;2.53;1.40;;;9.70;99.90;;;;;;5136249;27;20195;-51
2023/01/08 10:15:21;;;;;;;3.50;1.23;;;9.80;99.90;;;;;;5135646;27;20183;-53
2023/01/08 10:18:02;;;;;;;2.55;1.30;;;9.80;99.90;;;;;;5136215;27;20176;-50
2023/01/08 10:20:28;;;;;;;2.78;1.25;;;9.80;99.90;;;;;;5136328;27;20179;-53
2023/01/08 10:22:53;;;;;;;2.15;1.00;;;9.90;99.90;;;;;;5135874;27;20171;-50
2023/01/08 10:25:23;;;;;;;4.20;1.33;;;9.80;99.90;;;;;;5135746;27;20211;-50
2023/01/08 10:28:00;;;;;;;1.38;1.05;;;9.80;99.90;;;;;;5136265;27;20308;-51
2023/01/08 10:30:36;;;;;;;3.33;1.30;;;9.80;99.90;;;;;;5135795;27;20602;-51
2023/01/08 10:33:04;;;;;;;3.53;1.20;;;9.90;99.90;;;;;;5135766;27;20506;-53
2023/01/08 10:35:42;;;;;;;3.85;1.50;;;10.00;99.90;;;;;;5135628;27;20563;-53
2023/01/08 10:38:24;;;;;;;3.60;1.33;;;10.10;99.90;;;;;;5135971;27;20639;-52
2023/01/08 10:40:51;;;;;;;3.35;1.40;;;10.10;99.90;;;;;;5135770;27;20196;-53
2023/01/08 10:43:18;;;;;;;5.13;1.55;;;10.00;99.90;;;;;;5135494;27;20189;-51
2023/01/08 10:46:07;;;;;;;4.32;1.38;;;10.00;99.90;;;;;;5135486;27;20679;-50
2023/01/08 10:48:45;;;;;;;4.40;1.35;;;10.10;99.90;;;;;;5135511;27;20549;-50
2023/01/08 10:51:23;;;;;;;3.60;1.42;;;10.10;99.90;;;;;;5135789;27;20291;-50
2023/01/08 10:53:50;;;;;;;2.90;1.15;;;10.00;99.90;;;;;;5135372;27;20180;-51
2023/01/08 10:56:27;;;;;;;3.25;1.30;;;10.00;99.90;;;;;;5135282;27;20495;-50
2023/01/08 10:58:53;;;;;;;2.97;1.30;;;10.00;99.90;;;;;;5135277;27;20171;-53
2023/01/08 11:01:27;;;;;;;4.65;1.48;;;10.00;99.90;;;;;;5135476;27;20183;-53
2023/01/08 11:04:05;;;;;;;4.40;1.80;;;10.10;99.90;;;;;;5135118;27;20225;-49
2023/01/08 11:06:43;;;;;;;4.10;1.48;;;10.10;99.90;;;;;;5135148;27;20251;-51
2023/01/08 11:09:20;;;;;;;3.42;1.92;;;10.20;99.90;;;;;;5133960;27;20495;-52
2023/01/08 11:11:47;;;;;;;3.92;1.50;;;10.10;99.90;;;;;;5135030;27;20176;-53
2023/01/08 11:14:34;;;;;;;4.10;1.30;;;10.10;99.90;;;;;;5134962;27;20173;-50
2023/01/08 11:17:10;;;;;;;4.60;1.50;;;10.20;99.90;;;;;;5134932;27;20213;-50
2023/01/08 11:19:36;;;;;;;5.15;1.83;;;10.20;99.90;;;;;;5135195;27;20258;-52
2023/01/08 11:22:18;;;;;;;4.15;1.67;;;10.20;99.90;;;;;;5135085;27;20595;-52
2023/01/08 11:24:44;;;;;;;6.63;1.60;;;10.30;99.90;;;;;;5134903;27;20205;-50
2023/01/08 11:27:34;;;;;;;4.35;1.90;;;10.20;99.90;;;;;;5133758;27;20176;-54
2023/01/08 11:30:18;;;;;;;5.10;1.92;;;10.30;99.90;;;;;;5134886;27;20229;-52
2023/01/08 11:33:08;;;;;;;3.63;1.63;;;10.40;99.90;;;;;;5134841;27;20251;-52
2023/01/08 11:35:41;;;;;;;4.60;1.83;;;10.50;99.90;;;;;;5133248;27;20176;-51
2023/01/08 11:38:11;;;;;;;7.40;1.63;;;10.40;99.90;;;;;;5134434;27;20180;-52
2023/01/08 11:40:43;;;;;;;6.30;1.75;;;10.50;99.90;;;;;;5134730;27;20183;-53
2023/01/08 11:43:36;;;;;;;5.78;1.73;;;10.50;99.90;;;;;;5134450;27;20208;-50
2023/01/08 11:46:16;;;;;;;3.00;1.52;;;10.40;99.90;;;;;;5134405;27;20212;-52
2023/01/08 11:48:45;;;;;;;4.30;1.50;;;10.40;99.90;;;;;;5134434;27;20641;-53
2023/01/08 11:51:23;;;;;;;3.78;1.70;;;10.50;99.90;;;;;;5134622;27;20173;-50
2023/01/08 11:54:05;;;;;;;5.38;1.80;;;10.60;99.90;;;;;;5134347;28;20656;-50
2023/01/08 11:56:46;;;;;;;4.90;1.75;;;10.60;99.90;;;;;;5134273;27;20570;-53
2023/01/08 11:59:32;;;;;;;4.95;1.80;;;10.50;99.90;;;;;;5134400;27;20217;-50
2023/01/08 12:02:24;;;;;;;5.15;1.80;;;10.50;99.90;;;;;;5134470;27;20291;-52
2023/01/08 12:05:37;;;;;;;5.72;1.95;;;10.50;99.90;;;;;;5134201;27;20192;-52
2023/01/08 12:08:15;;;;;;;6.30;1.83;;;10.40;99.90;;;;;;5128632;27;20219;-53
2023/01/08 12:11:06;;;;;;;6.20;2.10;;;10.40;99.90;;;;;;5134318;27;20252;-53
2023/01/08 12:13:57;;;;;;;4.70;1.65;;;10.50;99.90;;;;;;5134335;27;20177;-54
2023/01/08 12:16:26;;;;;;;4.45;1.58;;;10.40;99.90;;;;;;5134603;28;20211;-53
2023/01/08 12:19:13;;;;;;;5.50;2.00;;;10.30;99.90;;;;;;5134404;27;20169;-52
2023/01/08 12:22:03;;;;;;;4.82;1.80;;;10.40;99.90;;;;;;5134182;28;20245;-53
2023/01/08 12:24:43;;;;;;;6.78;1.95;;;10.50;99.90;;;;;;5134290;27;20201;-51
2023/01/08 12:27:22;;;;;;;5.85;1.95;;;10.50;99.90;;;;;;5134050;28;20168;-53
2023/01/08 12:30:17;;;;;;;4.97;1.75;;;10.60;99.90;;;;;;5134179;28;20164;-52
2023/01/08 12:33:14;;;;;;;7.25;1.70;;;10.70;99.90;;;;;;5120477;27;20185;-53
2023/01/08 12:35:49;;;;;;;4.80;1.63;;;10.80;99.90;;;;;;5134079;27;20656;-52
2023/01/08 12:38:27;;;;;;;4.25;1.60;;;10.80;99.90;;;;;;5135507;27;20164;-52
2023/01/08 12:41:14;;;;;;;7.57;1.80;;;10.90;99.90;;;;;;5137931;27;20169;-53
2023/01/08 12:43:51;;;;;;;5.25;1.90;;;10.90;99.90;;;;;;5137968;27;20180;-53
2023/01/08 12:46:18;;;;;;;4.22;1.83;;;11.00;99.90;;;;;;5137905;27;20176;-52
2023/01/08 12:48:49;;;;;;;5.15;1.63;;;11.00;99.90;;;;;;5137831;27;20179;-53
2023/01/08 12:51:39;;;;;;;5.18;1.77;;;11.00;99.90;;;;;;5138062;27;20181;-52
2023/01/08 12:54:26;;;;;;;5.93;2.00;;;11.00;99.90;;;;;;5134491;27;20325;-50
2023/01/08 12:56:57;;;;;;;6.18;1.95;;;11.10;99.90;;;;;;5117214;28;20190;-49
2023/01/08 12:59:35;;;;;;;6.90;2.00;;;11.00;99.90;;;;;;5117237;28;20178;-51
2023/01/08 13:02:19;;;;;;;7.38;1.88;;;10.90;99.90;;;;;;5117220;28;20570;-49
2023/01/08 13:04:46;;;;;;;6.63;1.77;;;10.90;99.90;;;;;;5117270;28;20262;-53
2023/01/08 13:07:45;;;;;;;4.90;1.70;;;10.90;99.90;;;;;;5117000;28;20188;-52
2023/01/08 13:10:42;;;;;;;6.35;2.03;;;10.90;99.90;;;;;;5096084;28;20174;-50
2023/01/08 13:13:36;;;;;;;6.53;1.92;;;10.90;99.90;;;;;;5117184;28;20519;-51
2023/01/08 13:16:13;;;;;;;7.35;2.05;;;11.00;99.90;;;;;;5116701;28;20173;-50